DAL708 KLAX-BGGH
Flight info
| Callsign | DAL708 |
|---|---|
| Flight time | N/A |
| Altitude | 32000 |
| Route | GMN7 EHF J5 FMG/N0468F310 J7 REO/N0465F320 J537 MLP/N0464F330 J540 YQL Q896 MEETO/N0468F350 Q959 YVC J540 YZS/N0468F370 DCT 65N080W/M080F370 DCT IKNOG |
| Aircraft | B739/M-SDE2E3FGHIRWXY/LB1 |
Departure
| Time | 2026-05-04 03:06 |
|---|---|
| Airport | Los Angeles International Airport (KLAX) |
Arrival
| Time | N/A |
|---|---|
| Airport | Nuuk International Airport (BGGH) |
| Time | Latitude | Longitude | Altitude | Speed | Heading |
|---|---|---|---|---|---|
| 2026-05-04 02:22 | 33.94696 | -118.40497 | 93 ft | 0 kts | 111° |
| 2026-05-04 02:47 | 33.94698 | -118.40503 | 92 ft | 4 kts | 110° |
| 2026-05-04 02:47 | 33.94703 | -118.40533 | 91 ft | 4 kts | 74° |
| 2026-05-04 02:47 | 33.94690 | -118.40553 | 91 ft | 4 kts | 5° |
| 2026-05-04 02:47 | 33.94679 | -118.40552 | 91 ft | 1 kts | 353° |
| 2026-05-04 02:48 | 33.94678 | -118.40552 | 91 ft | 0 kts | 353° |
| 2026-05-04 02:51 | 33.94688 | -118.40554 | 92 ft | 3 kts | 353° |
| 2026-05-04 02:51 | 33.94714 | -118.40558 | 95 ft | 5 kts | 353° |
| 2026-05-04 02:52 | 33.94756 | -118.40576 | 93 ft | 8 kts | 340° |
| 2026-05-04 02:52 | 33.94776 | -118.40636 | 94 ft | 9 kts | 264° |
| 2026-05-04 02:52 | 33.94769 | -118.40711 | 92 ft | 9 kts | 263° |
| 2026-05-04 02:52 | 33.94762 | -118.40784 | 94 ft | 9 kts | 262° |
| 2026-05-04 02:53 | 33.94754 | -118.40854 | 92 ft | 8 kts | 262° |
| 2026-05-04 02:53 | 33.94747 | -118.40923 | 92 ft | 8 kts | 263° |
| 2026-05-04 02:53 | 33.94741 | -118.40989 | 92 ft | 8 kts | 263° |
| 2026-05-04 02:53 | 33.94734 | -118.41059 | 92 ft | 11 kts | 263° |
| 2026-05-04 02:54 | 33.94715 | -118.41180 | 94 ft | 18 kts | 252° |
| 2026-05-04 02:54 | 33.94688 | -118.41317 | 94 ft | 14 kts | 263° |
| 2026-05-04 02:54 | 33.94625 | -118.41373 | 93 ft | 13 kts | 174° |
| 2026-05-04 02:54 | 33.94536 | -118.41361 | 93 ft | 13 kts | 173° |
| 2026-05-04 02:55 | 33.94369 | -118.41336 | 92 ft | 12 kts | 174° |
| 2026-05-04 02:55 | 33.94287 | -118.41324 | 94 ft | 12 kts | 172° |
| 2026-05-04 02:55 | 33.94206 | -118.41312 | 92 ft | 11 kts | 173° |
| 2026-05-04 02:56 | 33.94128 | -118.41301 | 93 ft | 11 kts | 173° |
| 2026-05-04 02:56 | 33.94052 | -118.41289 | 95 ft | 11 kts | 172° |
| 2026-05-04 02:56 | 33.93972 | -118.41277 | 92 ft | 12 kts | 173° |
| 2026-05-04 02:56 | 33.93882 | -118.41264 | 94 ft | 14 kts | 173° |
| 2026-05-04 02:57 | 33.93789 | -118.41248 | 93 ft | 12 kts | 163° |
| 2026-05-04 02:57 | 33.93760 | -118.41162 | 93 ft | 14 kts | 84° |
| 2026-05-04 02:57 | 33.93771 | -118.41035 | 92 ft | 17 kts | 84° |
| 2026-05-04 02:57 | 33.93787 | -118.40886 | 93 ft | 19 kts | 83° |
| 2026-05-04 02:58 | 33.93805 | -118.40723 | 93 ft | 20 kts | 82° |
| 2026-05-04 02:58 | 33.93821 | -118.40563 | 93 ft | 19 kts | 83° |
| 2026-05-04 02:58 | 33.93837 | -118.40408 | 94 ft | 18 kts | 83° |
| 2026-05-04 02:58 | 33.93852 | -118.40258 | 95 ft | 18 kts | 82° |
| 2026-05-04 02:59 | 33.93867 | -118.40114 | 98 ft | 17 kts | 82° |
| 2026-05-04 02:59 | 33.93881 | -118.39975 | 95 ft | 16 kts | 83° |
| 2026-05-04 02:59 | 33.93895 | -118.39835 | 96 ft | 18 kts | 83° |
| 2026-05-04 02:59 | 33.93910 | -118.39680 | 96 ft | 19 kts | 83° |
| 2026-05-04 03:00 | 33.93927 | -118.39528 | 94 ft | 18 kts | 82° |
| 2026-05-04 03:00 | 33.93941 | -118.39381 | 95 ft | 17 kts | 83° |
| 2026-05-04 03:00 | 33.93956 | -118.39240 | 94 ft | 17 kts | 82° |
| 2026-05-04 03:00 | 33.93970 | -118.39106 | 93 ft | 16 kts | 83° |
| 2026-05-04 03:01 | 33.93983 | -118.38975 | 95 ft | 15 kts | 83° |
| 2026-05-04 03:01 | 33.93996 | -118.38849 | 93 ft | 15 kts | 83° |
| 2026-05-04 03:01 | 33.94008 | -118.38728 | 95 ft | 14 kts | 82° |
| 2026-05-04 03:01 | 33.94020 | -118.38612 | 94 ft | 14 kts | 83° |
| 2026-05-04 03:02 | 33.94034 | -118.38484 | 94 ft | 16 kts | 83° |
| 2026-05-04 03:02 | 33.94047 | -118.38341 | 95 ft | 18 kts | 84° |
| 2026-05-04 03:02 | 33.94064 | -118.38180 | 93 ft | 21 kts | 83° |
| 2026-05-04 03:02 | 33.94077 | -118.38050 | 92 ft | 7 kts | 91° |
| 2026-05-04 03:03 | 33.94076 | -118.38045 | 92 ft | 0 kts | 96° |
| 2026-05-04 03:05 | 33.94076 | -118.38041 | 92 ft | 3 kts | 98° |
| 2026-05-04 03:05 | 33.94035 | -118.37997 | 92 ft | 13 kts | 164° |
| 2026-05-04 03:05 | 33.93987 | -118.38009 | 93 ft | 8 kts | 242° |
| 2026-05-04 03:05 | 33.93983 | -118.38038 | 93 ft | 15 kts | 261° |
| 2026-05-04 03:06 | 33.93939 | -118.38457 | 97 ft | 84 kts | 263° |
| 2026-05-04 03:06 | 33.93845 | -118.39382 | 94 ft | 139 kts | 263° |
| 2026-05-04 03:06 | 33.93708 | -118.40695 | 325 ft | 162 kts | 262° |
| 2026-05-04 03:06 | 33.93545 | -118.42072 | 745 ft | 179 kts | 261° |
| 2026-05-04 03:07 | 33.93388 | -118.43603 | 1330 ft | 187 kts | 264° |
| 2026-05-04 03:07 | 33.93239 | -118.45206 | 1890 ft | 202 kts | 264° |
| 2026-05-04 03:07 | 33.93083 | -118.46989 | 2133 ft | 220 kts | 264° |
| 2026-05-04 03:07 | 33.92931 | -118.48824 | 2514 ft | 225 kts | 264° |
| 2026-05-04 03:08 | 33.92780 | -118.50680 | 3133 ft | 222 kts | 264° |
| 2026-05-04 03:08 | 33.92626 | -118.52558 | 3514 ft | 230 kts | 264° |
| 2026-05-04 03:08 | 33.92467 | -118.54496 | 3979 ft | 232 kts | 264° |
| 2026-05-04 03:08 | 33.92306 | -118.56443 | 4467 ft | 241 kts | 264° |
| 2026-05-04 03:09 | 33.92131 | -118.58545 | 4656 ft | 262 kts | 264° |
| 2026-05-04 03:09 | 33.92037 | -118.60763 | 5227 ft | 265 kts | 278° |
| 2026-05-04 03:09 | 33.92688 | -118.62773 | 6153 ft | 259 kts | 305° |
| 2026-05-04 03:09 | 33.93985 | -118.64314 | 6726 ft | 268 kts | 324° |
| 2026-05-04 03:10 | 33.95624 | -118.65470 | 7167 ft | 277 kts | 330° |
| 2026-05-04 03:10 | 33.97347 | -118.66563 | 7714 ft | 280 kts | 329° |
| 2026-05-04 03:10 | 33.98514 | -118.67279 | 7959 ft | 280 kts | 334° |
| 2026-05-04 03:10 | 34.00455 | -118.67727 | 7991 ft | 290 kts | 0° |
| 2026-05-04 03:11 | 34.02449 | -118.67574 | 7989 ft | 293 kts | 1° |
| 2026-05-04 03:11 | 34.04468 | -118.67421 | 8010 ft | 289 kts | 1° |
| 2026-05-04 03:11 | 34.06471 | -118.67282 | 7986 ft | 288 kts | 1° |
| 2026-05-04 03:11 | 34.08464 | -118.67111 | 8002 ft | 287 kts | 6° |
| 2026-05-04 03:12 | 34.10437 | -118.66678 | 8315 ft | 291 kts | 9° |
| 2026-05-04 03:12 | 34.12438 | -118.66162 | 8808 ft | 298 kts | 10° |
| 2026-05-04 03:12 | 34.14482 | -118.65637 | 9346 ft | 302 kts | 9° |
| 2026-05-04 03:12 | 34.16547 | -118.65122 | 9930 ft | 305 kts | 9° |
| 2026-05-04 03:13 | 34.18641 | -118.64616 | 10450 ft | 309 kts | 9° |
| 2026-05-04 03:13 | 34.20783 | -118.64106 | 10830 ft | 318 kts | 9° |
| 2026-05-04 03:13 | 34.22984 | -118.63586 | 11133 ft | 330 kts | 9° |
| 2026-05-04 03:13 | 34.25319 | -118.63351 | 11229 ft | 344 kts | 350° |
| 2026-05-04 03:14 | 34.27718 | -118.63883 | 11398 ft | 358 kts | 345° |
| 2026-05-04 03:14 | 34.30220 | -118.64511 | 11517 ft | 376 kts | 345° |
| 2026-05-04 03:14 | 34.32836 | -118.65153 | 11629 ft | 392 kts | 346° |
| 2026-05-04 03:14 | 34.35560 | -118.65797 | 11753 ft | 406 kts | 346° |
| 2026-05-04 03:15 | 34.38367 | -118.66442 | 12071 ft | 413 kts | 347° |
| 2026-05-04 03:15 | 34.41201 | -118.67087 | 12506 ft | 417 kts | 347° |
| 2026-05-04 03:15 | 34.44061 | -118.67742 | 12968 ft | 420 kts | 347° |
| 2026-05-04 03:15 | 34.46948 | -118.68341 | 13441 ft | 423 kts | 348° |
| 2026-05-04 03:16 | 34.49868 | -118.68890 | 13864 ft | 426 kts | 349° |
| 2026-05-04 03:16 | 34.52812 | -118.69432 | 14248 ft | 429 kts | 348° |
| 2026-05-04 03:16 | 34.55770 | -118.69985 | 14681 ft | 431 kts | 348° |
| 2026-05-04 03:16 | 34.58735 | -118.70553 | 15106 ft | 432 kts | 347° |
| 2026-05-04 03:17 | 34.61707 | -118.71132 | 15533 ft | 433 kts | 348° |
| 2026-05-04 03:17 | 34.64671 | -118.71710 | 16141 ft | 430 kts | 347° |
| 2026-05-04 03:17 | 34.67633 | -118.72292 | 16486 ft | 434 kts | 347° |
| 2026-05-04 03:17 | 34.70631 | -118.72887 | 16793 ft | 437 kts | 346° |
| 2026-05-04 03:18 | 34.73506 | -118.73977 | 17145 ft | 430 kts | 327° |
| 2026-05-04 03:18 | 34.76077 | -118.75800 | 17603 ft | 428 kts | 325° |
| 2026-05-04 03:18 | 34.78653 | -118.77639 | 17981 ft | 430 kts | 325° |
| 2026-05-04 03:18 | 34.81253 | -118.79473 | 18310 ft | 433 kts | 326° |
| 2026-05-04 03:19 | 34.83838 | -118.81277 | 18603 ft | 435 kts | 326° |
| 2026-05-04 03:19 | 34.86510 | -118.83122 | 18887 ft | 437 kts | 325° |
| 2026-05-04 03:19 | 34.89124 | -118.84925 | 19206 ft | 438 kts | 325° |
| 2026-05-04 03:19 | 34.91781 | -118.86754 | 19506 ft | 439 kts | 324° |
| 2026-05-04 03:20 | 34.94437 | -118.88590 | 19803 ft | 440 kts | 324° |
| 2026-05-04 03:20 | 34.97111 | -118.90433 | 20041 ft | 443 kts | 324° |
| 2026-05-04 03:20 | 34.99803 | -118.92288 | 20312 ft | 445 kts | 324° |
| 2026-05-04 03:20 | 35.02510 | -118.94155 | 20478 ft | 450 kts | 324° |
| 2026-05-04 03:21 | 35.05248 | -118.96045 | 20749 ft | 451 kts | 324° |
| 2026-05-04 03:21 | 35.07981 | -118.97929 | 21065 ft | 451 kts | 323° |
| 2026-05-04 03:21 | 35.10716 | -118.99820 | 21372 ft | 452 kts | 323° |
| 2026-05-04 03:21 | 35.13453 | -119.01716 | 21636 ft | 453 kts | 322° |
| 2026-05-04 03:22 | 35.16196 | -119.03618 | 21871 ft | 455 kts | 322° |
| 2026-05-04 03:22 | 35.18954 | -119.05531 | 22112 ft | 456 kts | 322° |
| 2026-05-04 03:22 | 35.21724 | -119.07456 | 22297 ft | 460 kts | 322° |
| 2026-05-04 03:22 | 35.24511 | -119.09393 | 22497 ft | 461 kts | 322° |
| 2026-05-04 03:23 | 35.27305 | -119.11334 | 22751 ft | 462 kts | 322° |
| 2026-05-04 03:23 | 35.30101 | -119.13278 | 22990 ft | 463 kts | 321° |
| 2026-05-04 03:23 | 35.32900 | -119.15227 | 23200 ft | 464 kts | 321° |
| 2026-05-04 03:23 | 35.35708 | -119.17184 | 23397 ft | 465 kts | 321° |
| 2026-05-04 03:24 | 35.38525 | -119.19148 | 23582 ft | 466 kts | 321° |
| 2026-05-04 03:24 | 35.41355 | -119.21123 | 23713 ft | 469 kts | 321° |
| 2026-05-04 03:24 | 35.44242 | -119.23017 | 23872 ft | 477 kts | 329° |
| 2026-05-04 03:24 | 35.47529 | -119.24041 | 24014 ft | 501 kts | 347° |
| 2026-05-04 03:25 | 35.51021 | -119.24312 | 24260 ft | 503 kts | 348° |
| 2026-05-04 03:25 | 35.54514 | -119.24576 | 24430 ft | 503 kts | 348° |